Kezdőlap
METAR-TAF:

METAR-TAF

Repülőterek :

Szunani nemzetközi repülőtér

Phenjan, Észak-Korea

földrajzi szélesség: 39-02N, földrajzi hosszúság: 125-47E, magasság: 36 m

METAR: hiányzik

Idő: 06:44 (22:14 UTC)

Előrejelzés

A jelentés 12 órával és 44 perccel ezelõtt készült, 09:30 UTC
Az előrejelzés 21-én 12 óra UTC és 22-én 12 óra UTC között érvényes
Északkeleti szél 6 kt
Látótávolság 10 km, vagy több
felhőtlen 1500 m magasságban, és nincs gomolyfelhõ
21-én 16 óra UTC és 21-én 18 óra UTC között fokozatosan kialakuló
Keleti szél 6 kt
Látótávolság: 3000 m
Borult 20000 lábon
Párásság
21-én 22 óra UTC és 21-én 24 óra UTC között fokozatosan kialakuló
Dél-délkeleti szél 6 kt
Látótávolság: 1500 m
Szakadozott felhőzet 3300 lábon

TAF: ZKPY 210930Z 2112/2212 04003MPS CAVOK BECMG 2116/2118 08003MPS 3000 BR OVC200 BECMG 2122/2124 16003MPS 1500 BKN033 TX19/2207Z TN05/2121Z

Meteorológiai megfigyelések és előrejelzések több, mint 4000 repülőtéren (METAR és TAF jelentéseket).

A térképen piros és sárga pontok jelzik az elérhető meteorológiai állomásokat.

Mozgassa az egeret a pont fölött, hogy megjelenjen az állomás neve.

Azután kattintson az időjárási megfigyelések és előrejelzések megtekintéséhez.

A térkép megváltoztatása: kattintson a fekete keresztel jelölt zöld gombra ráközelítéshez, a vonallal jelölt zöld gombra távolításhoz, vagy a zöld nyilakra a szomszédos térképek eléréséhez.


METAR-TAF: